Latest Weather Observations for Swan Hill

IDV60801

Issued at 5:31 pm EST Monday 4 May 2015 (issued every 30 minutes, with the page automatically refreshed every 10 minutes)

About weather observations | Map of weather stations | Latest weather observations for VIC | Other Formats
Station Details ID: 077094 Name: SWAN HILL AERODROME Lat: -35.38 Lon: 143.54 Height: 71.0 m
Data from the previous 72 hours. | See also: Recent months at Swan Hill
Date/Time
EST
Temp
°C
App
Temp
°C
Dew
Point
Rel
Hum
%
Delta-T
°C
Wind Press
QNH
hPa
Press
MSL
hPa
Rain
since 9 am
mm
Dir
 
Spd
km/h
Gust
km/h
Spd
kts
Gust
kts
04/05:30pm 20.4 16.4 6.7 41 7.0 NNE 17 24 9 13 1009.8 1009.8 0.0
04/05:00pm 21.9 17.4 6.2 36 8.0 NNE 19 26 10 14 1009.8 1009.8 0.0
04/04:30pm 22.4 17.3 6.2 35 8.2 N 22 32 12 17 1010.2 1010.2 0.0
04/04:00pm 22.8 17.5 6.6 35 8.3 N 24 32 13 17 1010.4 1010.4 0.0
04/03:30pm 22.8 17.9 7.0 36 8.2 N 22 30 12 16 1010.8 1010.8 0.0
04/03:00pm 22.7 18.2 6.9 36 8.2 N 20 30 11 16 1011.3 1011.3 0.0
04/02:30pm 22.4 18.1 7.8 39 7.7 N 20 32 11 17 1011.8 1011.8 0.0
04/02:00pm 22.4 18.3 7.8 39 7.7 N 19 26 10 14 1012.0 1012.0 0.0
04/01:30pm 22.1 18.0 7.9 40 7.4 N 19 26 10 14 1012.5 1012.5 0.0
04/01:00pm 21.5 17.8 8.1 42 7.0 NNW 17 26 9 14 1013.2 1013.2 0.0
04/12:30pm 21.2 17.3 8.5 44 6.7 N 19 30 10 16 1014.0 1014.0 0.0
04/12:00pm 20.9 16.9 8.2 44 6.6 N 19 26 10 14 1014.5 1014.5 0.0
04/11:30am 19.4 15.2 8.1 48 5.8 N 20 26 11 14 1015.1 1015.2 0.0
04/11:00am 19.2 15.7 8.8 51 5.4 N 17 24 9 13 1015.4 1015.5 0.0
04/10:00am 16.6 13.6 9.1 61 3.9 NE 15 17 8 9 1015.7 1015.8 0.0
04/09:30am 14.7 11.9 8.4 66 3.2 NE 13 15 7 8 1016.0 1016.1 0.0
04/09:00am 12.9 11.1 8.0 72 2.4 SSW 7 9 4 5 1016.3 1016.4 0.0
04/08:30am 10.3 9.7 7.4 82 1.4 CALM 0 0 0 0 1016.5 1016.6 0.0
04/08:00am 6.4 5.2 4.7 89 0.7 CALM 0 0 0 0 1016.4 1016.5 0.0
04/07:30am 4.4 2.9 3.1 91 0.5 CALM 0 0 0 0 1016.3 1016.4 0.0
04/07:00am 4.1 2.5 2.6 90 0.6 CALM 0 0 0 0 1016.3 1016.4 0.0
04/06:30am 4.4 2.9 2.8 89 0.7 CALM 0 0 0 0 1016.3 1016.4 0.0
04/06:00am 4.8 3.4 3.3 90 0.6 CALM 0 0 0 0 1016.2 1016.3 0.0
04/05:30am 5.0 3.6 3.5 90 0.6 CALM 0 0 0 0 1016.0 1016.1 0.0
04/05:00am 5.1 3.7 3.4 89 0.7 CALM 0 0 0 0 1015.9 1016.0 0.0
04/04:30am 5.6 4.2 3.4 86 0.9 CALM 0 0 0 0 1016.0 1016.1 0.0
04/04:00am 6.2 4.9 4.2 87 0.9 CALM 0 0 0 0 1016.0 1016.1 0.0
04/03:30am 6.1 4.8 3.9 86 0.9 CALM 0 0 0 0 1016.1 1016.2 0.0
04/03:00am 6.8 5.4 5.3 90 0.7 SSW 2 6 1 3 1016.4 1016.5 0.0
04/02:30am 6.9 5.9 5.4 90 0.7 CALM 0 0 0 0 1016.7 1016.8 0.0
04/02:00am 6.9 5.8 5.1 88 0.8 CALM 0 0 0 0 1017.1 1017.2 0.0
04/01:30am 6.9 5.2 4.2 83 1.2 SSW 2 6 1 3 1017.2 1017.3 0.0
04/01:00am 7.3 5.0 4.6 83 1.2 SSW 6 7 3 4 1017.6 1017.7 0.0
04/12:30am 8.0 6.2 5.3 83 1.2 SSW 4 7 2 4 1017.8 1017.9 0.0
04/12:00am 8.6 6.4 5.2 79 1.5 SSW 6 7 3 4 1017.9 1018.0 0.0
 
Date/Time
EST
Temp
°C
App
Temp
°C
Dew
Point
Rel
Hum
%
Delta-T
°C
Wind Press
QNH
hPa
Press
MSL
hPa
Rain
since 9 am
mm
Dir
 
Spd
km/h
Gust
km/h
Spd
kts
Gust
kts
03/11:30pm 10.2 8.0 6.2 76 1.9 SSW 7 11 4 6 1017.9 1018.0 0.0
03/11:00pm 10.3 8.1 6.1 75 1.9 SSW 7 9 4 5 1017.9 1018.0 0.0
03/10:30pm 11.0 8.8 6.2 72 2.3 SSW 7 9 4 5 1018.2 1018.2 0.0
03/10:00pm 11.6 9.1 6.5 71 2.4 SSW 9 11 5 6 1018.2 1018.2 0.0
03/09:30pm 12.3 9.9 6.8 69 2.6 SSW 9 15 5 8 1018.3 1018.3 0.0
03/09:00pm 12.5 10.1 6.8 68 2.7 SSW 9 13 5 7 1018.2 1018.2 0.0
03/08:30pm 13.2 9.7 7.0 66 3.0 SW 15 17 8 9 1018.3 1018.3 0.0
03/08:00pm 14.0 10.9 7.3 64 3.3 SW 13 17 7 9 1018.4 1018.4 0.0
03/07:30pm 14.8 11.0 7.4 61 3.7 SW 17 20 9 11 1018.2 1018.2 0.0
03/07:00pm 15.3 11.4 7.3 59 4.0 SW 17 20 9 11 1017.9 1018.0 0.0
03/06:30pm 16.2 12.4 7.4 56 4.4 SW 17 20 9 11 1017.6 1017.7 0.0
03/06:00pm 17.2 14.3 6.7 50 5.2 SW 11 15 6 8 1017.3 1017.4 0.0
03/05:30pm 18.9 15.7 7.0 46 6.0 SW 13 17 7 9 1017.2 1017.3 0.0
03/05:00pm 19.8 16.3 7.2 44 6.4 SSW 15 22 8 12 1017.1 1017.2 0.0
03/04:30pm 20.3 16.4 7.0 42 6.8 SW 17 26 9 14 1017.0 1017.1 0.0
03/04:00pm 20.7 17.5 7.0 41 7.0 SSW 13 24 7 13 1017.2 1017.3 0.0
03/03:30pm 21.0 16.5 6.9 40 7.2 SW 20 37 11 20 1017.3 1017.4 0.0
03/03:00pm 21.0 17.1 7.3 41 7.0 WSW 17 22 9 12 1017.3 1017.4 0.0
03/02:30pm 20.9 17.8 7.2 41 7.0 SW 13 20 7 11 1017.4 1017.5 0.0
03/02:00pm 20.5 17.1 7.5 43 6.7 W 15 22 8 12 1017.5 1017.6 0.0
03/01:30pm 20.7 17.1 8.4 45 6.5 W 17 22 9 12 1017.8 1017.9 0.0
03/01:00pm 19.9 17.1 8.6 48 5.9 SW 13 20 7 11 1018.0 1018.1 0.0
03/12:30pm 19.3 16.0 8.0 48 5.8 SW 15 28 8 15 1018.8 1018.8 0.0
03/12:00pm 18.6 15.5 8.8 53 5.1 SW 15 22 8 12 1019.4 1019.4 0.0
03/11:30am 18.2 15.1 9.0 55 4.8 SW 15 20 8 11 1019.7 1019.7 0.0
03/11:00am 17.3 13.5 9.2 59 4.2 SW 19 26 10 14 1020.3 1020.3 0.0
03/10:30am 17.2 14.2 9.1 59 4.2 SW 15 22 8 12 1020.3 1020.3 0.0
03/10:00am 16.4 13.4 9.3 63 3.7 SSW 15 20 8 11 1020.5 1020.5 0.0
03/09:30am 15.8 13.4 10.1 69 3.0 SSW 13 19 7 10 1020.5 1020.5 0.0
03/09:00am 13.6 11.6 10.2 80 1.8 SW 11 15 6 8 1020.4 1020.4 0.0
03/08:30am 10.6 9.2 8.9 89 0.8 SW 6 11 3 6 1020.4 1020.4 0.0
03/08:00am 8.2 7.5 7.1 93 0.5 CALM 0 0 0 0 1019.8 1019.8 0.0
03/07:30am 6.3 5.2 5.1 92 0.5 CALM 0 0 0 0 1019.7 1019.7 0.0
03/07:00am 6.2 4.2 4.5 89 0.7 SSW 4 7 2 4 1019.4 1019.4 0.0
03/06:30am 7.5 5.2 5.6 88 0.9 SSW 7 9 4 5 1019.1 1019.1 0.0
03/06:00am 8.2 6.1 6.7 90 0.7 SSW 7 11 4 6 1019.0 1019.0 0.0
03/05:30am 8.8 6.8 6.9 88 0.9 SSW 7 9 4 5 1018.8 1018.8 0.0
03/05:00am 8.3 6.1 6.3 87 0.9 SSW 7 9 4 5 1018.4 1018.4 0.0
03/04:30am 8.5 6.3 6.3 86 1.0 SSW 7 9 4 5 1018.3 1018.3 0.0
03/04:00am 8.0 6.2 5.3 83 1.2 SSW 4 9 2 5 1018.6 1018.6 0.0
03/03:30am 9.3 6.8 6.4 82 1.3 SSW 9 11 5 6 1018.6 1018.6 0.0
03/03:00am 8.5 6.2 4.9 78 1.6 SSW 6 9 3 5 1018.2 1018.2 0.0
03/02:30am 7.8 6.7 4.9 82 1.3 CALM 0 0 0 0 1018.3 1018.3 0.0
03/02:00am 8.9 6.7 5.1 77 1.7 SSW 6 7 3 4 1018.3 1018.3 0.0
03/01:30am 9.0 8.0 5.7 80 1.5 CALM 0 0 0 0 1018.0 1018.1 0.0
03/01:00am 9.3 7.7 4.3 71 2.2 SSW 2 7 1 4 1018.3 1018.3 0.0
03/12:30am 11.1 8.8 5.8 70 2.5 SSW 7 9 4 5 1018.5 1018.5 0.0
03/12:00am 12.5 9.9 5.9 64 3.1 SSW 9 11 5 6 1018.7 1018.7 0.0
 
Date/Time
EST
Temp
°C
App
Temp
°C
Dew
Point
Rel
Hum
%
Delta-T
°C
Wind Press
QNH
hPa
Press
MSL
hPa
Rain
since 9 am
mm
Dir
 
Spd
km/h
Gust
km/h
Spd
kts
Gust
kts
02/11:30pm 13.4 10.0 6.0 61 3.5 SSW 13 17 7 9 1018.7 1018.7 0.0
02/11:00pm 13.9 10.5 5.8 58 3.8 SSW 13 17 7 9 1018.7 1018.7 0.0
02/10:30pm 14.9 10.7 5.7 54 4.4 SSW 17 22 9 12 1018.5 1018.5 0.0
02/10:00pm 15.5 10.9 5.4 51 4.8 SW 19 24 10 13 1018.4 1018.4 0.0
02/09:30pm 15.5 11.0 4.2 47 5.3 SW 17 20 9 11 1018.3 1018.3 0.0
02/09:00pm 15.3 11.9 4.1 47 5.2 SW 11 15 6 8 1018.0 1018.1 0.0
02/08:30pm 14.4 10.2 3.8 49 4.8 WSW 15 17 8 9 1017.9 1018.0 0.0
02/08:00pm 14.4 10.1 3.5 48 4.9 W 15 17 8 9 1017.5 1017.6 0.0
02/07:30pm 14.1 9.8 3.3 48 4.9 W 15 17 8 9 1017.3 1017.4 0.0
02/07:00pm 15.4 11.4 2.9 43 5.6 W 13 13 7 7 1016.9 1017.0 0.0
02/06:30pm 16.7 12.7 2.7 39 6.4 W 13 13 7 7 1016.4 1016.5 0.0
02/06:00pm 18.6 14.2 2.9 35 7.3 W 15 17 8 9 1016.2 1016.3 0.0
02/05:30pm 21.7 17.7 4.7 33 8.4 W 15 20 8 11 1016.0 1016.1 0.0
02/05:00pm 23.2 18.8 6.5 34 8.6 WNW 19 24 10 13 1015.8 1015.9 0.0
02/04:30pm 23.2 18.6 6.5 34 8.6 WNW 20 26 11 14 1015.7 1015.8 0.0
02/04:00pm 24.3 19.0 7.0 33 9.0 WNW 24 33 13 18 1015.6 1015.7 0.0
02/03:30pm 24.3 19.5 7.4 34 8.9 NW 22 28 12 15 1015.5 1015.6 0.0
02/03:00pm 24.1 19.8 7.7 35 8.7 W 20 33 11 18 1015.4 1015.5 0.0
02/02:30pm 24.5 19.3 7.2 33 9.1 NW 24 35 13 19 1015.5 1015.6 0.0
02/02:00pm 24.4 19.9 8.4 36 8.6 NW 22 32 12 17 1015.9 1016.0 0.0
02/01:30pm 24.0 19.0 8.0 36 8.5 WNW 24 35 13 19 1016.3 1016.4 0.0
02/01:00pm 23.2 18.6 9.6 42 7.4 NW 24 33 13 18 1016.7 1016.8 0.0
02/12:30pm 22.8 17.9 9.9 44 7.0 NW 26 35 14 19 1017.2 1017.3 0.0
02/12:00pm 22.8 19.2 10.6 46 6.7 NW 20 26 11 14 1017.8 1017.9 0.0
02/11:30am 21.2 18.2 10.7 51 5.8 NW 17 26 9 14 1018.5 1018.5 0.0
02/11:00am 19.5 16.9 10.8 57 4.7 NNW 15 19 8 10 1019.0 1019.0 0.0
02/10:30am 18.6 15.9 10.2 58 4.5 NNW 15 19 8 10 1019.4 1019.4 0.0
02/10:00am 17.5 14.7 9.9 61 4.0 NNW 15 20 8 11 1019.7 1019.7 0.0
02/09:30am 15.5 13.1 10.1 70 2.8 N 13 17 7 9 1020.1 1020.1 0.0
02/09:00am 14.8 13.1 10.0 73 2.5 N 9 13 5 7 1020.0 1020.0 0.0
02/08:30am 14.4 12.4 10.0 75 2.3 N 11 13 6 7 1020.0 1020.0 0.0
02/08:00am 14.0 12.3 9.8 76 2.2 NNE 9 11 5 6 1019.7 1019.7 0.0
02/07:30am 13.8 12.0 9.6 76 2.2 NNE 9 11 5 6 1019.3 1019.3 0.0
02/07:00am 13.7 11.9 9.6 76 2.1 NNE 9 11 5 6 1019.1 1019.1 0.0
02/06:30am 14.1 12.0 9.7 75 2.3 NNE 11 17 6 9 1019.2 1019.2 0.0
02/06:00am 13.9 11.0 9.5 75 2.3 NNE 15 19 8 10 1019.2 1019.2 0.0
02/05:30am 13.8 10.5 9.5 75 2.2 NE 17 20 9 11 1018.9 1018.9 0.0
02/05:00am 13.9 10.9 9.3 74 2.3 NNE 15 19 8 10 1018.8 1018.8 0.0
02/04:30am 13.9 10.8 8.9 72 2.5 NNE 15 22 8 12 1018.9 1018.9 0.0
02/04:00am 13.8 10.3 8.8 72 2.5 NNE 17 20 9 11 1018.9 1018.9 0.0
02/03:30am 13.2 10.4 8.5 73 2.4 NE 13 17 7 9 1019.0 1019.0 0.0
02/03:00am 13.3 10.4 8.2 71 2.5 NE 13 17 7 9 1019.2 1019.2 0.0
02/02:30am 13.7 10.4 8.1 69 2.8 NE 15 17 8 9 1019.4 1019.4 0.0
02/02:00am 13.6 10.7 8.2 70 2.7 NE 13 19 7 10 1019.5 1019.5 0.0
02/01:30am 10.6 8.1 6.7 77 1.8 ENE 9 11 5 6 1019.7 1019.7 0.0
02/01:00am 11.0 10.3 7.1 77 1.9 CALM 0 0 0 0 1019.8 1019.8 0.0
02/12:30am 11.6 11.0 7.3 75 2.1 CALM 0 0 0 0 1020.0 1020.0 0.0
02/12:00am 11.3 10.5 6.6 73 2.2 CALM 0 4 0 2 1020.0 1020.0 0.0
 
Date/Time
EST
Temp
°C
App
Temp
°C
Dew
Point
Rel
Hum
%
Delta-T
°C
Wind Press
QNH
hPa
Press
MSL
hPa
Rain
since 9 am
mm
Dir
 
Spd
km/h
Gust
km/h
Spd
kts
Gust
kts
01/11:30pm 13.4 11.6 7.8 69 2.8 ENE 7 9 4 5 1020.0 1020.0 0.0
01/11:00pm 13.4 11.2 7.8 69 2.8 ENE 9 11 5 6 1020.2 1020.2 0.0
01/10:30pm 13.3 11.3 7.3 67 2.9 ENE 7 9 4 5 1020.4 1020.4 0.0
01/10:00pm 14.1 12.3 7.9 66 3.1 ENE 7 9 4 5 1020.6 1020.6 0.0
01/09:30pm 14.3 12.4 7.6 64 3.3 ENE 7 9 4 5 1020.8 1020.8 0.0
01/09:00pm 14.6 12.4 7.9 64 3.3 ENE 9 11 5 6 1021.0 1021.0 0.0
01/08:30pm 14.6 12.8 7.9 64 3.3 ENE 7 7 4 4 1021.5 1021.5 0.0
01/08:00pm 15.0 12.9 8.3 64 3.4 NE 9 11 5 6 1021.5 1021.5 0.0
01/07:30pm 14.1 12.5 7.9 66 3.1 NE 6 9 3 5 1022.0 1022.0 0.0
01/07:00pm 15.5 15.0 7.8 60 3.8 CALM 0 0 0 0 1022.4 1022.4 0.0
01/06:30pm 17.1 16.0 8.3 56 4.5 NE 4 6 2 3 1022.3 1022.3 0.0
01/06:00pm 18.4 16.6 8.1 51 5.3 NE 7 9 4 5 1021.9 1021.9 0.0

Other Formats:

Comma delimited format used in spreadsheet applications
http://www.bom.gov.au/fwo/IDV60801/IDV60801.94843.axf

JavaScript Object Notation format (JSON) in row-major order
http://www.bom.gov.au/fwo/IDV60801/IDV60801.94843.json